Time;durP1;ratioP1;P1;durP2;ratioP2;P2;SDS_P1;SDS_P2;PMS_P1;PMS_P2;Temp;Humidity;BMP_temperature;BMP_pressure;BME280_temperature;BME280_humidity;BME280_pressure;Samples;Min_cycle;Max_cycle;Signal;HPM_P1;HPM_P2
2023/08/11 00:02:23;;;;;;;;;;;21.60;66.20;;;;;;5042609;28;20444;-76
2023/08/11 00:04:50;;;;;;;;;;;21.50;66.20;;;;;;5041359;28;20007;-77
2023/08/11 00:07:17;;;;;;;;;;;21.50;66.20;;;;;;5051409;28;19972;-77
2023/08/11 00:09:44;;;;;;;;;;;21.50;66.20;;;;;;5045941;28;19979;-76
2023/08/11 00:12:10;;;;;;;;;;;21.40;66.40;;;;;;5047661;28;19983;-77
2023/08/11 00:14:37;;;;;;;;;;;21.40;66.60;;;;;;5045002;28;20023;-77
2023/08/11 00:17:05;;;;;;;;;;;21.40;66.80;;;;;;5044317;28;19996;-77
2023/08/11 00:19:32;;;;;;;;;;;21.30;66.90;;;;;;5043455;28;20027;-77
2023/08/11 00:21:58;;;;;;;;;;;21.30;67.00;;;;;;5041960;28;20385;-77
2023/08/11 00:24:25;;;;;;;;;;;21.30;67.20;;;;;;5045783;28;20030;-76
2023/08/11 00:26:51;;;;;;;;;;;21.20;67.40;;;;;;5043029;28;19990;-76
2023/08/11 00:29:18;;;;;;;;;;;21.20;67.50;;;;;;5044313;28;19982;-76
2023/08/11 00:31:45;;;;;;;;;;;21.20;67.70;;;;;;5043967;28;19996;-77
2023/08/11 00:34:13;;;;;;;;;;;21.20;67.70;;;;;;5043270;28;20495;-76
2023/08/11 00:36:40;;;;;;;;;;;21.10;67.90;;;;;;5043520;28;20429;-77
2023/08/11 00:39:07;;;;;;;;;;;21.10;67.90;;;;;;5043392;28;20579;-76
2023/08/11 00:41:33;;;;;;;;;;;21.10;68.10;;;;;;5042029;28;19983;-76
2023/08/11 00:44:00;;;;;;;;;;;21.10;68.30;;;;;;5039923;28;19997;-77
2023/08/11 00:46:27;;;;;;;;;;;21.10;68.30;;;;;;5041746;28;20042;-76
2023/08/11 00:48:53;;;;;;;;;;;21.00;68.40;;;;;;5043753;28;20003;-76
2023/08/11 00:51:22;;;;;;;;;;;20.90;68.40;;;;;;5040625;28;19975;-76
2023/08/11 00:53:49;;;;;;;;;;;20.90;68.50;;;;;;5046239;28;20002;-77
2023/08/11 00:56:16;;;;;;;;;;;20.90;68.50;;;;;;5045613;28;19994;-77
2023/08/11 00:58:43;;;;;;;;;;;20.90;68.80;;;;;;5044169;28;19986;-77
2023/08/11 01:01:10;;;;;;;;;;;20.80;68.80;;;;;;5044369;28;20046;-77
2023/08/11 01:03:37;;;;;;;;;;;20.80;68.90;;;;;;5040997;28;19998;-77
2023/08/11 01:06:06;;;;;;;;;;;20.80;69.00;;;;;;5046519;28;19975;-77
2023/08/11 01:08:38;;;;;;;;;;;20.70;69.00;;;;;;5041859;28;19980;-76
2023/08/11 01:11:08;;;;;;;;;;;20.70;69.10;;;;;;5043023;28;20098;-76
2023/08/11 01:13:38;;;;;;;;;;;20.70;69.30;;;;;;5040671;28;19980;-76
2023/08/11 01:16:05;;;;;;;;;;;20.60;69.40;;;;;;5042992;28;19991;-76
2023/08/11 01:18:33;;;;;;;;;;;20.60;69.30;;;;;;5040492;28;19999;-77
2023/08/11 01:21:00;;;;;;;;;;;20.60;69.40;;;;;;5043658;28;19982;-76
2023/08/11 01:23:28;;;;;;;;;;;20.50;69.40;;;;;;5045977;28;19988;-77
2023/08/11 01:25:56;;;;;;;;;;;20.50;69.70;;;;;;5034346;28;20003;-76
2023/08/11 01:28:22;;;;;;;;;;;20.50;69.80;;;;;;5043812;28;19980;-77
2023/08/11 01:30:49;;;;;;;;;;;20.50;69.70;;;;;;5043777;28;20504;-77
2023/08/11 01:33:15;;;;;;;;;;;20.50;69.60;;;;;;5043593;28;19975;-76
2023/08/11 01:35:42;;;;;;;;;;;20.40;69.80;;;;;;5041676;28;20626;-77
2023/08/11 01:38:09;;;;;;;;;;;20.40;70.00;;;;;;5043605;28;20361;-77
2023/08/11 01:40:37;;;;;;;;;;;20.40;70.00;;;;;;5046485;28;20038;-77
2023/08/11 01:43:05;;;;;;;;;;;20.30;70.10;;;;;;5039955;28;19976;-77
2023/08/11 01:45:31;;;;;;;;;;;20.30;70.10;;;;;;5041282;28;20391;-77
2023/08/11 01:47:59;;;;;;;;;;;20.30;70.20;;;;;;5040377;28;19976;-76
2023/08/11 01:50:27;;;;;;;;;;;20.30;70.30;;;;;;5041090;28;19976;-76
2023/08/11 01:52:54;;;;;;;;;;;20.20;70.20;;;;;;5045831;28;20105;-75
2023/08/11 01:55:23;;;;;;;;;;;20.20;70.30;;;;;;5047167;28;20010;-76
2023/08/11 01:57:51;;;;;;;;;;;20.20;70.40;;;;;;5039891;28;20450;-76
2023/08/11 02:00:20;;;;;;;;;;;20.20;70.50;;;;;;5046089;28;19980;-76
2023/08/11 02:02:47;;;;;;;;;;;20.20;70.50;;;;;;5043132;28;20046;-77
2023/08/11 02:05:15;;;;;;;;;;;20.10;70.60;;;;;;5047074;28;19996;-76
2023/08/11 02:10:45;;;;;;;;;;;20.10;70.80;;;;;;5037378;28;19974;-77
2023/08/11 02:13:13;;;;;;;;;;;20.00;70.80;;;;;;5043547;28;19980;-76
2023/08/11 02:15:40;;;;;;;;;;;20.00;70.90;;;;;;5049395;28;20004;-76
2023/08/11 02:18:07;;;;;;;;;;;20.00;71.00;;;;;;5048954;28;19997;-76
2023/08/11 02:20:33;;;;;;;;;;;20.00;71.00;;;;;;5044571;28;19982;-77
2023/08/11 02:23:00;;;;;;;;;;;19.90;71.00;;;;;;5047813;28;20103;-78
2023/08/11 02:25:26;;;;;;;;;;;19.90;71.10;;;;;;5048061;28;19996;-76
2023/08/11 02:27:53;;;;;;;;;;;19.90;71.20;;;;;;5044171;28;19987;-76
2023/08/11 02:30:22;;;;;;;;;;;19.80;71.20;;;;;;5048611;28;20070;-77
2023/08/11 02:32:48;;;;;;;;;;;19.80;71.30;;;;;;5045222;28;19983;-75
2023/08/11 02:35:17;;;;;;;;;;;19.80;71.40;;;;;;5046610;28;19999;-77
2023/08/11 02:37:43;;;;;;;;;;;19.80;71.50;;;;;;5046694;28;19990;-77
2023/08/11 02:40:10;;;;;;;;;;;19.70;71.50;;;;;;5044636;28;20088;-76
2023/08/11 02:42:37;;;;;;;;;;;19.70;71.60;;;;;;5041198;28;19972;-77
2023/08/11 02:45:08;;;;;;;;;;;19.70;71.70;;;;;;5042325;28;20002;-75
2023/08/11 02:47:36;;;;;;;;;;;19.70;71.80;;;;;;5043941;28;20167;-76
2023/08/11 02:50:04;;;;;;;;;;;19.60;71.90;;;;;;5043501;28;21782;-76
2023/08/11 02:52:30;;;;;;;;;;;19.60;71.90;;;;;;5039010;28;19979;-77
2023/08/11 02:54:57;;;;;;;;;;;19.60;71.90;;;;;;5043526;28;19996;-75
2023/08/11 02:57:23;;;;;;;;;;;19.60;72.00;;;;;;5044400;28;19976;-77
2023/08/11 02:59:50;;;;;;;;;;;19.50;72.00;;;;;;5043934;28;19984;-76
2023/08/11 03:02:17;;;;;;;;;;;19.50;72.10;;;;;;5041501;28;20086;-75
2023/08/11 03:04:45;;;;;;;;;;;19.50;72.20;;;;;;5041712;28;20137;-77
2023/08/11 03:07:12;;;;;;;;;;;19.50;72.30;;;;;;5043662;28;19975;-76
2023/08/11 03:09:38;;;;;;;;;;;19.40;72.30;;;;;;5044350;28;19975;-77
2023/08/11 03:12:05;;;;;;;;;;;19.40;72.40;;;;;;5026366;28;20074;-75
2023/08/11 03:14:32;;;;;;;;;;;19.40;72.60;;;;;;5019606;28;19996;-75
2023/08/11 03:16:59;;;;;;;;;;;19.40;72.70;;;;;;5019897;28;19995;-77
2023/08/11 03:19:26;;;;;;;;;;;19.30;72.80;;;;;;5018561;28;20111;-76
2023/08/11 03:21:54;;;;;;;;;;;19.30;72.80;;;;;;5018902;28;20006;-75
2023/08/11 03:24:20;;;;;;;;;;;19.30;72.80;;;;;;5018395;28;20000;-76
2023/08/11 03:26:47;;;;;;;;;;;19.30;72.90;;;;;;5019509;28;19976;-76
2023/08/11 03:29:14;;;;;;;;;;;19.20;73.00;;;;;;5017945;28;19980;-75
2023/08/11 03:31:40;;;;;;;;;;;19.20;73.10;;;;;;5018185;28;20000;-77
2023/08/11 03:34:07;;;;;;;;;;;19.20;73.20;;;;;;5019986;28;20007;-76
2023/08/11 03:36:34;;;;;;;;;;;19.20;73.30;;;;;;5020867;28;19991;-76
2023/08/11 03:39:03;;;;;;;;;;;19.20;73.40;;;;;;5019667;28;19979;-76
2023/08/11 03:41:29;;;;;;;;;;;19.10;73.40;;;;;;5019467;28;19980;-77
2023/08/11 03:43:56;;;;;;;;;;;19.10;73.50;;;;;;5019166;28;19999;-76
2023/08/11 03:46:22;;;;;;;;;;;19.10;73.60;;;;;;5017643;28;20094;-75
2023/08/11 03:48:49;;;;;;;;;;;19.10;73.60;;;;;;5018989;28;20019;-76
2023/08/11 03:51:15;;;;;;;;;;;19.00;73.70;;;;;;5019146;28;20015;-76
2023/08/11 03:53:43;;;;;;;;;;;19.00;73.70;;;;;;5017849;28;22186;-76
2023/08/11 03:56:11;;;;;;;;;;;19.00;73.80;;;;;;5018885;28;20067;-77
2023/08/11 03:58:37;;;;;;;;;;;19.00;73.80;;;;;;5018205;28;20636;-75
2023/08/11 04:01:04;;;;;;;;;;;19.00;73.90;;;;;;5017566;28;19996;-75
2023/08/11 04:03:31;;;;;;;;;;;18.90;73.90;;;;;;5017102;28;19991;-76
2023/08/11 04:05:58;;;;;;;;;;;18.90;73.90;;;;;;5018021;28;20000;-76
2023/08/11 04:08:24;;;;;;;;;;;18.90;74.10;;;;;;5017449;28;19976;-76
2023/08/11 04:10:51;;;;;;;;;;;18.80;74.20;;;;;;5017641;28;20542;-76
2023/08/11 04:13:19;;;;;;;;;;;18.80;74.20;;;;;;5045915;28;19979;-75
2023/08/11 04:15:46;;;;;;;;;;;18.80;74.20;;;;;;5046250;28;20368;-76
2023/08/11 04:18:13;;;;;;;;;;;18.80;74.30;;;;;;5034617;28;19976;-75
2023/08/11 04:20:40;;;;;;;;;;;18.80;74.40;;;;;;5041055;28;19975;-76
2023/08/11 04:23:07;;;;;;;;;;;18.80;74.40;;;;;;5042173;28;20069;-77
2023/08/11 04:25:34;;;;;;;;;;;18.70;74.40;;;;;;5042396;28;20003;-76
2023/08/11 04:28:02;;;;;;;;;;;18.70;74.50;;;;;;5041710;28;19979;-77
2023/08/11 04:30:30;;;;;;;;;;;18.70;74.60;;;;;;5041533;28;20414;-77
2023/08/11 04:32:57;;;;;;;;;;;18.70;74.60;;;;;;5042901;28;20068;-76
2023/08/11 04:35:24;;;;;;;;;;;18.60;74.70;;;;;;5040641;28;19998;-76
2023/08/11 04:37:50;;;;;;;;;;;18.70;74.80;;;;;;5042167;28;19976;-76
2023/08/11 04:40:17;;;;;;;;;;;18.60;74.80;;;;;;5043663;28;19983;-76
2023/08/11 04:42:44;;;;;;;;;;;18.60;74.80;;;;;;5037347;28;20102;-76
2023/08/11 04:45:11;;;;;;;;;;;18.60;75.00;;;;;;5046391;28;20007;-77
2023/08/11 04:47:40;;;;;;;;;;;18.60;75.00;;;;;;5044095;28;20087;-77
2023/08/11 04:50:07;;;;;;;;;;;18.60;75.00;;;;;;5039061;28;20519;-77
2023/08/11 04:52:34;;;;;;;;;;;18.50;75.00;;;;;;5046182;28;20034;-77
2023/08/11 04:55:01;;;;;;;;;;;18.50;75.10;;;;;;5042864;28;19996;-76
2023/08/11 04:57:28;;;;;;;;;;;18.50;75.20;;;;;;5040858;28;20018;-77
2023/08/11 04:59:54;;;;;;;;;;;18.50;75.20;;;;;;5040833;28;20022;-77
2023/08/11 05:02:21;;;;;;;;;;;18.50;75.30;;;;;;5038710;28;20053;-77
2023/08/11 05:04:49;;;;;;;;;;;18.50;75.40;;;;;;5042665;28;20000;-77
2023/08/11 05:07:15;;;;;;;;;;;18.50;75.40;;;;;;5042446;28;19983;-76
2023/08/11 05:09:42;;;;;;;;;;;18.50;75.40;;;;;;5041379;28;19988;-76
2023/08/11 05:12:08;;;;;;;;;;;18.40;75.50;;;;;;5040993;28;19975;-77
2023/08/11 05:14:35;;;;;;;;;;;18.40;75.60;;;;;;5040883;28;20475;-76
2023/08/11 05:17:02;;;;;;;;;;;18.40;75.60;;;;;;5039470;28;19999;-76
2023/08/11 05:19:29;;;;;;;;;;;18.40;75.60;;;;;;5041383;28;19980;-77
2023/08/11 05:21:57;;;;;;;;;;;18.40;75.70;;;;;;5039884;28;19980;-77
2023/08/11 05:24:23;;;;;;;;;;;18.30;75.70;;;;;;5042440;28;20002;-76
2023/08/11 05:26:50;;;;;;;;;;;18.30;75.80;;;;;;5045858;28;20529;-76
2023/08/11 05:29:16;;;;;;;;;;;18.30;75.90;;;;;;5046428;28;19980;-76
2023/08/11 05:31:43;;;;;;;;;;;18.30;75.90;;;;;;5040830;28;20448;-76
2023/08/11 05:34:10;;;;;;;;;;;18.30;76.00;;;;;;5043027;28;20098;-76
2023/08/11 05:36:36;;;;;;;;;;;18.30;76.10;;;;;;5048115;28;20376;-76
2023/08/11 05:39:06;;;;;;;;;;;18.30;76.10;;;;;;5047639;28;19998;-77
2023/08/11 05:41:33;;;;;;;;;;;18.30;76.20;;;;;;5046218;28;19982;-77
2023/08/11 05:43:59;;;;;;;;;;;18.20;76.20;;;;;;5048099;28;20013;-77
2023/08/11 05:46:26;;;;;;;;;;;18.30;76.40;;;;;;5044342;28;19996;-76
2023/08/11 05:48:52;;;;;;;;;;;18.20;76.40;;;;;;5046886;28;19976;-76
2023/08/11 05:51:19;;;;;;;;;;;18.20;76.40;;;;;;5044810;28;21070;-76
2023/08/11 05:53:46;;;;;;;;;;;18.20;76.50;;;;;;5044919;28;19980;-77
2023/08/11 05:56:14;;;;;;;;;;;18.20;76.60;;;;;;5045742;28;20026;-77
2023/08/11 05:58:41;;;;;;;;;;;18.20;76.70;;;;;;5048662;28;19987;-77
2023/08/11 06:01:08;;;;;;;;;;;18.20;76.80;;;;;;5048642;28;19996;-77
2023/08/11 06:03:34;;;;;;;;;;;18.20;76.90;;;;;;5046825;28;19983;-77
2023/08/11 06:06:01;;;;;;;;;;;18.20;76.90;;;;;;5046240;28;20405;-77
2023/08/11 06:08:28;;;;;;;;;;;18.20;77.00;;;;;;5051710;28;19983;-77
2023/08/11 06:10:55;;;;;;;;;;;18.20;77.10;;;;;;5048222;28;19987;-77
2023/08/11 06:13:23;;;;;;;;;;;18.20;77.10;;;;;;5052334;28;20453;-77
2023/08/11 06:15:50;;;;;;;;;;;18.10;77.20;;;;;;5044449;28;20011;-77
2023/08/11 06:18:16;;;;;;;;;;;18.20;77.30;;;;;;5051293;28;19983;-77
2023/08/11 06:20:43;;;;;;;;;;;18.10;77.20;;;;;;5046134;28;19979;-75
2023/08/11 06:23:10;;;;;;;;;;;18.10;77.30;;;;;;5045628;28;20392;-77
2023/08/11 06:25:36;;;;;;;;;;;18.10;77.40;;;;;;5040961;28;20002;-76
2023/08/11 06:28:03;;;;;;;;;;;18.10;77.60;;;;;;5043104;28;19980;-76
2023/08/11 06:30:31;;;;;;;;;;;18.10;77.70;;;;;;5042731;28;19995;-76
2023/08/11 06:32:58;;;;;;;;;;;18.10;77.80;;;;;;5047508;28;19983;-76
2023/08/11 06:35:25;;;;;;;;;;;18.10;77.80;;;;;;5041321;28;19996;-77
2023/08/11 06:37:51;;;;;;;;;;;18.10;77.90;;;;;;5044718;28;20074;-77
2023/08/11 06:40:18;;;;;;;;;;;18.10;77.90;;;;;;5047577;28;19980;-77
2023/08/11 06:42:45;;;;;;;;;;;18.10;78.00;;;;;;5040076;28;20401;-77
2023/08/11 06:45:12;;;;;;;;;;;18.10;78.10;;;;;;5044561;28;19995;-77
2023/08/11 06:47:39;;;;;;;;;;;18.10;78.20;;;;;;5041956;28;19983;-76
2023/08/11 06:50:06;;;;;;;;;;;18.10;78.30;;;;;;5042200;28;19980;-76
2023/08/11 06:52:33;;;;;;;;;;;18.10;78.30;;;;;;5044028;28;19986;-77
2023/08/11 06:54:59;;;;;;;;;;;18.10;78.40;;;;;;5047340;28;19992;-76
2023/08/11 06:57:26;;;;;;;;;;;18.10;79.20;;;;;;5044862;28;19995;-77
2023/08/11 06:59:52;;;;;;;;;;;18.10;78.50;;;;;;5042513;28;19975;-77
2023/08/11 07:02:20;;;;;;;;;;;18.20;78.60;;;;;;5040191;28;19995;-77
2023/08/11 07:04:49;;;;;;;;;;;18.10;78.50;;;;;;5045710;28;20007;-76
2023/08/11 07:07:15;;;;;;;;;;;18.20;78.60;;;;;;5043851;28;19999;-77
2023/08/11 07:09:42;;;;;;;;;;;18.20;78.70;;;;;;5046707;28;20615;-77
2023/08/11 07:12:09;;;;;;;;;;;18.20;78.70;;;;;;5047468;28;20472;-77
2023/08/11 07:14:35;;;;;;;;;;;18.20;78.90;;;;;;5046501;28;20003;-76
2023/08/11 07:17:02;;;;;;;;;;;18.20;79.00;;;;;;5045931;28;19991;-77
2023/08/11 07:19:28;;;;;;;;;;;18.20;79.20;;;;;;5046837;28;20054;-77
2023/08/11 07:21:56;;;;;;;;;;;18.20;79.00;;;;;;5045133;28;19987;-76
2023/08/11 07:24:23;;;;;;;;;;;18.30;79.00;;;;;;5044509;28;20861;-75
2023/08/11 07:26:49;;;;;;;;;;;18.30;79.00;;;;;;5043397;28;19999;-75
2023/08/11 07:29:16;;;;;;;;;;;18.30;79.10;;;;;;5042802;28;19980;-76
2023/08/11 07:31:44;;;;;;;;;;;18.30;79.10;;;;;;5039257;28;19995;-76
2023/08/11 07:34:10;;;;;;;;;;;18.30;79.10;;;;;;5040002;28;19996;-75
2023/08/11 07:36:37;;;;;;;;;;;18.40;79.20;;;;;;5045045;28;19982;-75
2023/08/11 07:39:07;;;;;;;;;;;18.40;79.10;;;;;;5044714;28;19979;-77
2023/08/11 07:41:34;;;;;;;;;;;18.40;79.10;;;;;;5045127;28;19998;-75
2023/08/11 07:44:00;;;;;;;;;;;18.40;79.40;;;;;;5043017;28;19998;-77
2023/08/11 07:46:27;;;;;;;;;;;18.40;79.60;;;;;;5044250;28;19999;-77
2023/08/11 07:48:53;;;;;;;;;;;18.50;79.60;;;;;;5048191;28;19990;-79
2023/08/11 07:51:20;;;;;;;;;;;18.50;79.30;;;;;;5041381;28;19987;-77
2023/08/11 07:53:46;;;;;;;;;;;18.50;79.30;;;;;;5046252;28;19979;-79
2023/08/11 07:56:15;;;;;;;;;;;18.50;79.30;;;;;;5040889;28;19983;-77
2023/08/11 07:58:42;;;;;;;;;;;18.50;80.00;;;;;;5043493;28;20831;-78
2023/08/11 08:01:09;;;;;;;;;;;18.60;79.20;;;;;;5045581;28;19996;-78
2023/08/11 08:03:35;;;;;;;;;;;18.60;79.10;;;;;;5047015;28;19991;-77
2023/08/11 08:06:04;;;;;;;;;;;18.60;79.10;;;;;;5046239;28;20079;-79
2023/08/11 08:08:31;;;;;;;;;;;18.60;79.40;;;;;;5039506;28;19982;-78
2023/08/11 08:10:59;;;;;;;;;;;18.60;79.30;;;;;;5038194;28;20087;-78
2023/08/11 08:13:34;;;;;;;;;;;18.70;79.50;;;;;;5042658;28;19980;-78
2023/08/11 08:16:01;;;;;;;;;;;18.70;79.40;;;;;;5037066;28;19991;-76
2023/08/11 08:18:27;;;;;;;;;;;18.70;79.30;;;;;;5043071;28;19976;-78
2023/08/11 08:20:54;;;;;;;;;;;18.70;79.40;;;;;;5038841;28;19979;-77
2023/08/11 08:23:21;;;;;;;;;;;18.80;79.80;;;;;;5039193;28;19979;-78
2023/08/11 08:25:48;;;;;;;;;;;18.80;79.70;;;;;;5030276;28;20048;-78
2023/08/11 08:28:14;;;;;;;;;;;18.90;79.90;;;;;;5037290;28;20368;-78
2023/08/11 08:30:42;;;;;;;;;;;18.90;79.90;;;;;;5036615;28;20002;-78
2023/08/11 08:33:09;;;;;;;;;;;18.90;79.90;;;;;;5042127;28;19974;-76
2023/08/11 08:35:36;;;;;;;;;;;18.90;79.80;;;;;;5039795;28;20006;-78
2023/08/11 08:38:02;;;;;;;;;;;18.90;79.70;;;;;;5038415;28;19983;-76
2023/08/11 08:40:29;;;;;;;;;;;19.00;79.70;;;;;;5045030;28;19983;-77
2023/08/11 08:42:56;;;;;;;;;;;19.00;79.50;;;;;;5034503;28;20030;-77
2023/08/11 08:45:22;;;;;;;;;;;19.10;79.60;;;;;;5044807;28;21040;-76
2023/08/11 08:47:50;;;;;;;;;;;19.10;79.50;;;;;;5046012;28;19979;-76
2023/08/11 08:50:22;;;;;;;;;;;19.10;79.30;;;;;;5044481;28;19987;-76
2023/08/11 08:52:54;;;;;;;;;;;19.20;79.40;;;;;;5038122;28;19985;-76
2023/08/11 08:55:21;;;;;;;;;;;19.20;79.50;;;;;;5037408;28;19999;-77
2023/08/11 08:57:47;;;;;;;;;;;19.20;79.90;;;;;;5037110;28;19980;-76
2023/08/11 09:00:14;;;;;;;;;;;19.30;79.90;;;;;;5040502;28;19991;-77
2023/08/11 09:02:42;;;;;;;;;;;19.30;79.60;;;;;;5044144;28;20083;-76
2023/08/11 09:05:11;;;;;;;;;;;19.40;79.60;;;;;;5040792;28;20010;-76
2023/08/11 09:07:38;;;;;;;;;;;19.40;79.70;;;;;;5041721;28;20006;-77
2023/08/11 09:10:05;;;;;;;;;;;19.50;79.80;;;;;;5039996;28;19979;-78
2023/08/11 09:12:32;;;;;;;;;;;19.50;79.60;;;;;;5039025;28;19976;-78
2023/08/11 09:14:59;;;;;;;;;;;19.60;79.70;;;;;;5043069;28;20003;-77
2023/08/11 09:17:26;;;;;;;;;;;19.60;79.50;;;;;;5037058;28;20401;-77
2023/08/11 09:19:53;;;;;;;;;;;19.70;79.40;;;;;;5039420;28;20019;-77
2023/08/11 09:22:25;;;;;;;;;;;19.70;79.30;;;;;;5030571;28;19979;-77
2023/08/11 09:24:52;;;;;;;;;;;19.80;79.30;;;;;;5038801;28;20002;-77
2023/08/11 09:27:20;;;;;;;;;;;19.90;79.10;;;;;;5031162;28;19998;-78
2023/08/11 09:29:48;;;;;;;;;;;19.90;78.90;;;;;;5038268;28;19979;-76
2023/08/11 09:32:15;;;;;;;;;;;20.00;78.80;;;;;;5035744;28;19992;-79
2023/08/11 09:34:43;;;;;;;;;;;20.10;78.60;;;;;;5041391;28;20098;-78
2023/08/11 09:37:10;;;;;;;;;;;20.10;78.30;;;;;;5041774;28;19980;-79
2023/08/11 09:39:39;;;;;;;;;;;20.10;78.10;;;;;;5044361;28;19980;-79
2023/08/11 09:42:07;;;;;;;;;;;20.20;77.90;;;;;;5038372;28;20683;-77
2023/08/11 09:44:34;;;;;;;;;;;20.30;77.80;;;;;;5041495;28;20049;-77
2023/08/11 09:47:01;;;;;;;;;;;20.40;77.60;;;;;;5033094;28;19996;-78
2023/08/11 09:49:27;;;;;;;;;;;20.40;77.20;;;;;;5035168;28;19987;-77
2023/08/11 09:51:55;;;;;;;;;;;20.50;77.10;;;;;;5045149;28;19976;-77
2023/08/11 09:54:22;;;;;;;;;;;20.60;77.00;;;;;;5037582;28;20041;-77
2023/08/11 09:56:51;;;;;;;;;;;20.70;76.90;;;;;;5038066;28;19979;-77
2023/08/11 09:59:19;;;;;;;;;;;20.80;76.90;;;;;;5034976;28;20896;-75
2023/08/11 10:01:47;;;;;;;;;;;20.80;76.40;;;;;;5036891;28;20003;-76
2023/08/11 10:04:16;;;;;;;;;;;20.90;76.20;;;;;;5039878;28;20090;-77
2023/08/11 10:06:44;;;;;;;;;;;21.00;76.00;;;;;;5037425;28;19995;-76
2023/08/11 10:09:12;;;;;;;;;;;21.10;75.60;;;;;;5044708;28;20387;-76
2023/08/11 10:11:39;;;;;;;;;;;21.10;75.50;;;;;;5036848;28;19976;-77
2023/08/11 10:14:07;;;;;;;;;;;21.20;75.40;;;;;;5037030;28;20015;-75
2023/08/11 10:16:34;;;;;;;;;;;21.30;75.10;;;;;;5040019;28;19991;-76
2023/08/11 10:19:01;;;;;;;;;;;21.40;74.80;;;;;;5043437;28;19976;-77
2023/08/11 10:21:28;;;;;;;;;;;21.40;74.40;;;;;;5042524;28;20019;-76
2023/08/11 10:23:55;;;;;;;;;;;21.50;74.40;;;;;;5041511;28;19999;-77
2023/08/11 10:26:22;;;;;;;;;;;21.60;74.40;;;;;;5042382;28;20073;-76
2023/08/11 10:28:49;;;;;;;;;;;21.70;74.90;;;;;;5042544;28;19980;-77
2023/08/11 10:31:17;;;;;;;;;;;21.70;74.10;;;;;;5049187;28;19992;-78
2023/08/11 10:33:48;;;;;;;;;;;21.80;73.90;;;;;;5044484;28;19983;-80
2023/08/11 10:36:16;;;;;;;;;;;21.90;73.70;;;;;;5044391;28;19979;-79
2023/08/11 10:38:43;;;;;;;;;;;22.00;73.50;;;;;;5044366;28;19979;-79
2023/08/11 10:41:10;;;;;;;;;;;22.10;73.00;;;;;;5045005;28;20449;-78
2023/08/11 10:43:40;;;;;;;;;;;22.20;72.90;;;;;;5045450;28;19980;-78
2023/08/11 10:46:22;;;;;;;;;;;22.20;72.80;;;;;;5043966;28;20103;-78
2023/08/11 10:48:49;;;;;;;;;;;22.30;72.70;;;;;;5046135;28;19984;-77
2023/08/11 10:51:28;;;;;;;;;;;22.40;72.50;;;;;;5041617;28;20441;-77
2023/08/11 10:53:56;;;;;;;;;;;22.50;72.40;;;;;;5042302;28;19980;-77
2023/08/11 10:56:30;;;;;;;;;;;22.60;72.30;;;;;;5041763;28;20067;-78
2023/08/11 10:59:06;;;;;;;;;;;22.70;72.10;;;;;;5049666;28;19976;-78
2023/08/11 11:01:35;;;;;;;;;;;22.80;71.60;;;;;;5045728;28;19999;-77
2023/08/11 11:04:01;;;;;;;;;;;22.80;71.20;;;;;;5046452;28;20003;-77
2023/08/11 11:06:28;;;;;;;;;;;22.90;71.00;;;;;;5043973;28;20002;-77
2023/08/11 11:08:55;;;;;;;;;;;23.00;71.00;;;;;;5043074;28;19987;-78
2023/08/11 11:11:22;;;;;;;;;;;23.10;70.90;;;;;;5042582;28;20122;-77
2023/08/11 11:13:49;;;;;;;;;;;23.20;70.50;;;;;;5037922;28;19980;-77
2023/08/11 11:16:16;;;;;;;;;;;23.20;70.10;;;;;;5035799;28;20216;-77
2023/08/11 11:18:45;;;;;;;;;;;23.30;70.00;;;;;;5037131;28;19987;-77
2023/08/11 11:21:12;;;;;;;;;;;23.40;69.90;;;;;;5038576;28;19980;-78
2023/08/11 11:23:39;;;;;;;;;;;23.50;69.80;;;;;;5043313;28;19975;-77
2023/08/11 11:26:05;;;;;;;;;;;23.50;69.50;;;;;;5037777;28;20446;-78
2023/08/11 11:28:32;;;;;;;;;;;23.60;69.40;;;;;;5041065;28;19982;-80
2023/08/11 11:30:59;;;;;;;;;;;23.70;69.30;;;;;;5040872;28;19996;-78
2023/08/11 11:33:25;;;;;;;;;;;23.80;69.20;;;;;;5041909;28;19975;-76
2023/08/11 11:35:53;;;;;;;;;;;23.80;69.00;;;;;;5043925;28;19988;-79
2023/08/11 11:38:20;;;;;;;;;;;24.00;69.00;;;;;;5045269;28;20382;-75
2023/08/11 11:40:49;;;;;;;;;;;24.00;68.80;;;;;;5044037;28;20041;-75
2023/08/11 11:43:15;;;;;;;;;;;24.10;68.80;;;;;;5046791;28;20407;-75
2023/08/11 11:45:42;;;;;;;;;;;24.20;68.60;;;;;;5045161;28;20489;-75
2023/08/11 11:48:08;;;;;;;;;;;24.20;68.30;;;;;;5048520;28;20030;-77
2023/08/11 11:50:35;;;;;;;;;;;24.30;68.20;;;;;;5044306;28;20750;-76
2023/08/11 11:53:03;;;;;;;;;;;24.40;67.80;;;;;;5045603;28;19999;-75
2023/08/11 11:55:30;;;;;;;;;;;24.50;67.70;;;;;;5048519;28;20480;-74
2023/08/11 11:57:57;;;;;;;;;;;24.50;67.30;;;;;;5042836;28;19975;-76
2023/08/11 12:00:25;;;;;;;;;;;24.60;67.20;;;;;;5047641;28;19983;-75
2023/08/11 12:02:53;;;;;;;;;;;24.70;66.90;;;;;;5044772;28;19984;-74
2023/08/11 12:05:21;;;;;;;;;;;24.70;66.60;;;;;;5046356;28;20002;-76
2023/08/11 12:07:47;;;;;;;;;;;24.80;66.30;;;;;;5048185;28;19995;-76
2023/08/11 12:10:20;;;;;;;;;;;24.90;66.30;;;;;;5047421;28;19980;-74
2023/08/11 12:12:48;;;;;;;;;;;24.90;66.00;;;;;;5045294;28;19984;-74
2023/08/11 12:15:17;;;;;;;;;;;25.00;65.90;;;;;;5043970;28;20071;-75
2023/08/11 12:17:48;;;;;;;;;;;25.10;65.80;;;;;;5054780;28;20025;-75
2023/08/11 12:20:14;;;;;;;;;;;25.10;65.60;;;;;;5043254;28;20612;-75
2023/08/11 12:22:42;;;;;;;;;;;25.20;65.40;;;;;;5047611;28;19980;-76
2023/08/11 12:25:10;;;;;;;;;;;25.30;65.20;;;;;;5045030;28;19999;-75
2023/08/11 12:27:38;;;;;;;;;;;25.40;65.10;;;;;;5045344;28;19992;-76
2023/08/11 12:30:06;;;;;;;;;;;25.40;64.80;;;;;;5044187;28;20053;-75
2023/08/11 12:32:32;;;;;;;;;;;25.50;64.70;;;;;;5048515;28;19991;-75
2023/08/11 12:34:59;;;;;;;;;;;25.60;64.50;;;;;;5043785;28;19999;-75
2023/08/11 12:37:26;;;;;;;;;;;25.60;64.40;;;;;;5047257;28;19984;-75
2023/08/11 12:39:53;;;;;;;;;;;25.60;64.30;;;;;;5044958;28;20515;-76
2023/08/11 12:42:19;;;;;;;;;;;25.70;64.30;;;;;;5041251;28;20525;-74
2023/08/11 12:44:47;;;;;;;;;;;25.70;64.00;;;;;;5049406;28;19995;-76
2023/08/11 12:47:14;;;;;;;;;;;25.80;64.00;;;;;;5046278;28;20003;-74
2023/08/11 12:49:40;;;;;;;;;;;25.80;63.80;;;;;;5048360;28;20030;-75
2023/08/11 12:52:07;;;;;;;;;;;25.90;63.80;;;;;;5047436;28;19980;-75
2023/08/11 12:54:33;;;;;;;;;;;26.00;63.20;;;;;;5052309;28;19987;-75
2023/08/11 12:57:00;;;;;;;;;;;26.00;63.30;;;;;;5044293;28;19976;-75
2023/08/11 12:59:26;;;;;;;;;;;26.10;63.30;;;;;;5049214;28;19980;-74
2023/08/11 13:01:54;;;;;;;;;;;26.10;63.30;;;;;;5049817;28;19999;-76
2023/08/11 13:04:21;;;;;;;;;;;26.20;63.30;;;;;;5041879;28;20039;-74
2023/08/11 13:06:47;;;;;;;;;;;26.30;63.30;;;;;;5049243;28;20002;-75
2023/08/11 13:09:14;;;;;;;;;;;26.30;63.10;;;;;;5043800;28;20369;-76
2023/08/11 13:11:41;;;;;;;;;;;26.40;63.00;;;;;;5043554;28;20095;-74
2023/08/11 13:14:08;;;;;;;;;;;26.40;62.90;;;;;;5044013;28;19996;-73
2023/08/11 13:16:35;;;;;;;;;;;26.50;62.60;;;;;;5043921;28;19995;-75
2023/08/11 13:19:03;;;;;;;;;;;26.50;62.60;;;;;;5044059;28;19971;-75
2023/08/11 13:21:30;;;;;;;;;;;26.60;62.60;;;;;;5041449;28;19984;-75
2023/08/11 13:23:58;;;;;;;;;;;26.70;62.10;;;;;;5042188;28;20045;-77
2023/08/11 13:26:24;;;;;;;;;;;26.70;61.50;;;;;;5044750;28;19979;-75
2023/08/11 13:28:51;;;;;;;;;;;26.80;61.30;;;;;;5046701;28;19999;-74
2023/08/11 13:31:18;;;;;;;;;;;26.80;61.10;;;;;;5044273;28;19992;-74
2023/08/11 13:33:44;;;;;;;;;;;26.90;61.20;;;;;;5047227;28;19983;-75
2023/08/11 13:36:12;;;;;;;;;;;26.90;60.80;;;;;;5044506;28;19987;-74
2023/08/11 13:38:39;;;;;;;;;;;27.00;61.00;;;;;;5045825;28;19979;-73
2023/08/11 13:41:05;;;;;;;;;;;27.00;60.90;;;;;;5044569;28;19976;-74
2023/08/11 13:43:34;;;;;;;;;;;27.10;60.90;;;;;;5047487;28;19982;-74
2023/08/11 13:46:01;;;;;;;;;;;27.10;60.80;;;;;;5045149;28;20136;-75
2023/08/11 13:48:27;;;;;;;;;;;27.20;60.10;;;;;;5045892;28;20408;-75
2023/08/11 13:50:54;;;;;;;;;;;27.30;60.00;;;;;;5043129;28;20524;-76
2023/08/11 13:53:22;;;;;;;;;;;27.30;59.50;;;;;;5047999;28;19979;-77
2023/08/11 13:55:48;;;;;;;;;;;27.40;59.70;;;;;;5047652;28;19999;-76
2023/08/11 13:58:15;;;;;;;;;;;27.40;59.60;;;;;;5051053;28;20006;-75
2023/08/11 14:00:42;;;;;;;;;;;27.50;59.60;;;;;;5046674;28;20000;-75
2023/08/11 14:03:08;;;;;;;;;;;27.50;59.40;;;;;;5045292;28;20335;-74
2023/08/11 14:05:35;;;;;;;;;;;27.60;59.40;;;;;;5051472;28;20547;-75
2023/08/11 14:08:01;;;;;;;;;;;27.70;59.30;;;;;;5049698;28;19992;-76
2023/08/11 14:10:30;;;;;;;;;;;27.70;58.90;;;;;;5047649;28;20023;-75
2023/08/11 14:12:56;;;;;;;;;;;27.80;58.30;;;;;;5045106;28;19976;-75
2023/08/11 14:15:23;;;;;;;;;;;27.90;58.20;;;;;;5046111;28;20417;-75
2023/08/11 14:17:49;;;;;;;;;;;27.90;57.70;;;;;;5049362;28;20393;-76
2023/08/11 14:20:16;;;;;;;;;;;28.00;57.70;;;;;;5045153;28;20030;-76